• Join FlightAware (Why Join?)
  • Login
  • US Flag 
12:51AM EDT


 

Airport Tracker/Info


-or-


 

Live Flight TrackerFlight Track Log ✈ AWE3397 ✈ 27-Apr-2013 ✈ KPHL - KMSY

Flight Track Log - Related Links

Times and Time Zones

All times are in EDT time to prevent confusion due to time zone crossing. See the AWE3397 flight status page for this flight to view local times or setup timezone preferences in your user account.

Time Position Orientation Groundspeed Altitude Reporting Facility
EDT Latitude Longitude Course Direction KTS MPH feet Rate Location/Type
08:27AM 39.8833 -75.2167 232° Southwest 152 175 1,100  Level Philadelphia TRACON
08:28AM 39.9000 -75.1333 75° East 233 268 3,400 2,400 Climbing Philadelphia TRACON
08:29AM 39.8370 -75.5963 218° Southwest  Level FlightAware Approximate
08:29AM 39.9500 -75.1500 346° North 249 287 6,400  Level Philadelphia TRACON
08:30AM 39.8334 -75.7199 270° West  Level FlightAware Approximate
08:30AM 39.9333 -75.2500 258° West 285 328 9,300  Level Philadelphia TRACON
08:31AM 39.8039 -75.8326 232° Southwest  Level FlightAware Approximate
08:31AM 39.9167 -75.3500 258° West 315 362 10,000  Level Philadelphia TRACON
08:32AM 39.7444 -75.9317 232° Southwest  Level FlightAware Approximate
08:32AM 39.8994 -75.4575 258° West 313 360 10,000  Level New York Center
08:33AM 39.8786 -75.5642 256° West 313 360 10,300 960 Climbing New York Center
08:34AM 39.8569 -75.6844 257° West 313 360 12,000 1,920 Climbing New York Center
08:35AM 39.8358 -75.7911 256° West 319 367 14,200 2,400 Climbing New York Center
08:36AM 39.7792 -75.8953 235° Southwest 319 367 16,800 2,220 Climbing New York Center
08:37AM 39.7231 -75.9828 230° Southwest 343 395 18,700 1,860 Climbing New York Center
08:38AM 39.6644 -76.0836 233° Southwest 349 402 20,500 2,040 Climbing New York Center
08:39AM 39.6014 -76.1842 231° Southwest 359 413 22,800 1,980 Climbing New York Center
08:41AM 39.5219 -76.3017 229° Southwest 358 412 24,800 1,680 Climbing Washington Center
08:42AM 39.4547 -76.4033 229° Southwest 364 419 26,500 1,380 Climbing Washington Center
08:43AM 39.3892 -76.5100 232° Southwest 369 425 27,700 1,200 Climbing Washington Center
08:44AM 39.3197 -76.6164 230° Southwest 384 442 28,900 1,140 Climbing Washington Center
08:45AM 39.2414 -76.7358 230° Southwest 396 456 30,000 540 Climbing Washington Center
08:46AM 39.1781 -76.8339 230° Southwest 401 461 30,000  Level Washington Center
08:47AM 39.1081 -76.9397 230° Southwest 401 461 30,000  Level Washington Center
08:48AM 39.0358 -77.0453 229° Southwest 401 461 30,000  Level Washington Center
08:49AM 38.9472 -77.1478 222° Southwest 401 461 30,000  Level Washington Center
08:50AM 38.8625 -77.2392 220° Southwest 396 456 30,000  Level Washington Center
08:51AM 38.7778 -77.3278 219° Southwest 401 461 30,000  Level Washington Center
08:52AM 38.6931 -77.4217 221° Southwest 401 461 30,000  Level Washington Center
08:53AM 38.6103 -77.5125 221° Southwest 401 461 30,000  Level Washington Center
08:54AM 38.5275 -77.6033 221° Southwest 401 461 30,000  Level Washington Center
08:55AM 38.4447 -77.6939 221° Southwest 401 461 30,000  Level Washington Center
08:56AM 38.3639 -77.7817 220° Southwest 395 455 30,000  Level Washington Center
08:57AM 38.2808 -77.8717 220° Southwest 395 455 30,000  Level Washington Center
08:58AM 38.2000 -77.9592 220° Southwest 395 455 30,000  Level Washington Center
08:59AM 38.1147 -78.0489 220° Southwest 395 455 30,000  Level Washington Center
09:00AM 38.0336 -78.1358 220° Southwest 395 455 30,000  Level Washington Center
09:01AM 37.9714 -78.2233 228° Southwest 387 445 30,000  Level Washington Center
09:02AM 37.9044 -78.3183 228° Southwest 382 440 30,000  Level Washington Center
09:03AM 37.8333 -78.4208 229° Southwest 382 440 30,000  Level Washington Center
09:04AM 37.7664 -78.5183 229° Southwest 382 440 30,000  Level Washington Center
09:05AM 37.6886 -78.6281 228° Southwest 382 440 30,000  Level Washington Center
09:06AM 37.6192 -78.7250 228° Southwest 382 440 30,000  Level Washington Center
09:07AM 37.5478 -78.8267 228° Southwest 382 440 30,000  Level Washington Center
09:08AM 37.4783 -78.9233 228° Southwest 382 440 30,000  Level Washington Center
09:09AM 37.4067 -79.0222 228° Southwest 382 440 30,000  Level Washington Center
09:10AM 37.3436 -79.1133 229° Southwest 382 440 30,000  Level Washington Center
09:11AM 37.2739 -79.2094 228° Southwest 382 440 30,000  Level Washington Center
09:12AM 37.1981 -79.3075 226° Southwest 382 440 30,000  Level Washington Center
09:13AM 37.1261 -79.4003 226° Southwest 387 445 30,000  Level Washington Center
09:14AM 37.0481 -79.4953 224° Southwest 387 445 30,000  Level Washington Center
09:15AM 36.9739 -79.5903 226° Southwest 387 445 30,000  Level Washington Center
09:16AM 36.8911 -79.6925 225° Southwest 387 445 30,000  Level Washington Center
09:17AM 36.8169 -79.7872 226° Southwest 387 445 30,000  Level Washington Center
09:18AM 36.7406 -79.8789 224° Southwest 387 445 30,000  Level Washington Center
09:19AM 36.6544 -79.9839 224° Southwest 390 449 30,000  Level Atlanta Center
09:20AM 36.5783 -80.0758 224° Southwest 390 449 30,000  Level Atlanta Center
09:21AM 36.5019 -80.1700 225° Southwest 390 449 30,000  Level Atlanta Center
09:22AM 36.4197 -80.2744 226° Southwest 390 449 30,000  Level Atlanta Center
09:23AM 36.3433 -80.3658 224° Southwest 395 455 30,000  Level Atlanta Center
09:24AM 36.2667 -80.4592 224° Southwest 395 455 30,000  Level Atlanta Center
09:25AM 36.1861 -80.5503 222° Southwest 395 455 30,000  Level Atlanta Center
09:26AM 36.1028 -80.6361 220° Southwest 390 449 30,000  Level Atlanta Center
09:27AM 36.0197 -80.7219 220° Southwest 390 449 30,000  Level Atlanta Center
09:28AM 35.9364 -80.8072 220° Southwest 396 456 30,000  Level Atlanta Center
09:29AM 35.8511 -80.8928 219° Southwest 396 456 30,000  Level Atlanta Center
09:30AM 35.7675 -80.9753 219° Southwest 396 456 30,000  Level Atlanta Center
09:31AM 35.6658 -81.0786 220° Southwest 396 456 30,000  Level Atlanta Center
09:32AM 35.5761 -81.1636 218° Southwest 396 456 30,000  Level Atlanta Center
09:33AM 35.4986 -81.2431 220° Southwest 406 467 30,000  Level Atlanta Center
09:34AM 35.4172 -81.3297 221° Southwest 406 467 30,000  Level Atlanta Center
09:35AM 35.3253 -81.4219 219° Southwest 400 460 30,000  Level Atlanta Center
09:36AM 35.2414 -81.5058 219° Southwest 400 460 30,000  Level Atlanta Center
09:37AM 35.1578 -81.5922 220° Southwest 400 460 30,000  Level Atlanta Center
09:38AM 35.0717 -81.6786 219° Southwest 400 460 30,000  Level Atlanta Center
09:39AM 34.9836 -81.7597 217° Southwest 400 460 30,000  Level Atlanta Center
09:40AM 34.9058 -81.8531 225° Southwest 400 460 30,000  Level Atlanta Center
09:41AM 34.8472 -81.9583 236° Southwest 388 447 30,000  Level Atlanta Center
09:42AM 34.7864 -82.0611 234° Southwest 388 447 30,000  Level Atlanta Center
09:43AM 34.7275 -82.1711 237° Southwest 388 447 30,000  Level Atlanta Center
09:44AM 34.6769 -82.2783 240° Southwest 382 440 30,000  Level Atlanta Center
09:45AM 34.6411 -82.3953 250° West 371 427 30,000  Level Atlanta Center
09:46AM 34.5903 -82.5047 241° Southwest 371 427 30,000  Level Atlanta Center
09:47AM 34.5350 -82.5989 235° Southwest 376 433 30,000  Level Atlanta Center
09:48AM 34.4694 -82.6983 231° Southwest 378 435 30,000  Level Atlanta Center
09:49AM 34.4100 -82.8050 236° Southwest 383 441 30,000 240 Level Atlanta Center
09:50AM 34.3483 -82.9117 235° Southwest 388 447 30,500 600 Climbing Atlanta Center
09:51AM 34.2806 -83.0331 236° Southwest 394 453 31,200 900 Climbing Atlanta Center
09:52AM 34.2106 -83.1419 232° Southwest 406 467 32,300 1,200 Climbing Atlanta Center
09:53AM 34.1464 -83.2506 234° Southwest 406 467 33,600 840 Climbing Atlanta Center
09:54AM 34.0825 -83.3542 233° Southwest 401 461 34,000 180 Climbing Atlanta Center
09:55AM 34.0183 -83.4597 234° Southwest 401 461 34,000  Level Atlanta Center
09:56AM 33.9542 -83.5656 234° Southwest 396 456 34,000  Level Atlanta Center
09:57AM 33.8917 -83.6708 234° Southwest 396 456 34,000  Level Atlanta Center
09:58AM 33.8275 -83.7761 234° Southwest 396 456 34,000  Level Atlanta Center
09:59AM 33.7669 -83.8739 233° Southwest 396 456 34,000  Level Atlanta Center
10:00AM 33.7003 -83.9789 233° Southwest 396 456 34,000  Level Atlanta Center
10:01AM 33.6356 -84.0886 235° Southwest 401 461 34,000  Level Atlanta Center
10:02AM 33.5686 -84.1933 233° Southwest 406 467 34,000  Level Atlanta Center
10:03AM 33.4975 -84.3128 234° Southwest 406 467 34,000  Level Atlanta Center
10:04AM 33.4325 -84.4197 234° Southwest 406 467 34,000  Level Atlanta Center
10:05AM 33.3611 -84.5289 232° Southwest 406 467 34,000  Level Atlanta Center
10:06AM 33.2961 -84.6353 234° Southwest 406 467 34,000  Level Atlanta Center
10:07AM 33.2308 -84.7442 234° Southwest 406 467 34,000  Level Atlanta Center
10:08AM 33.1633 -84.8503 233° Southwest 406 467 34,000  Level Atlanta Center
10:09AM 33.0978 -84.9589 234° Southwest 406 467 34,000  Level Atlanta Center
10:10AM 33.0281 -85.0647 232° Southwest 406 467 34,000  Level Atlanta Center
10:11AM 32.9647 -85.1678 234° Southwest 406 467 34,000  Level Atlanta Center
10:12AM 32.8969 -85.2708 232° Southwest 401 461 34,000  Level Atlanta Center
10:13AM 32.8289 -85.3786 233° Southwest 406 467 34,000  Level Atlanta Center
10:14AM 32.7631 -85.4864 234° Southwest 406 467 34,000  Level Atlanta Center
10:15AM 32.6928 -85.5914 232° Southwest 406 467 34,000  Level Atlanta Center
10:16AM 32.6247 -85.6986 233° Southwest 406 467 34,000  Level Atlanta Center
10:17AM 32.5542 -85.8058 232° Southwest 406 467 34,000  Level Atlanta Center
10:18AM 32.4839 -85.9128 232° Southwest 406 467 34,000  Level Atlanta Center
10:19AM 32.4153 -86.0194 233° Southwest 411 473 34,000  Level Atlanta Center
10:20AM 32.3489 -86.1261 234° Southwest 411 473 34,000  Level Atlanta Center
10:21AM 32.2844 -86.2303 234° Southwest 411 473 34,000  Level Atlanta Center
10:22AM 32.2200 -86.3319 233° Southwest 411 473 34,000  Level Atlanta Center
10:23AM 32.1469 -86.4403 231° Southwest 405 466 34,000  Level Atlanta Center
10:24AM 32.0719 -86.5414 229° Southwest 405 466 34,000  Level Atlanta Center
10:25AM 32.0011 -86.6397 230° Southwest 405 466 34,000  Level Atlanta Center
10:26AM 31.9303 -86.7283 227° Southwest 410 472 34,000  Level Atlanta Center
10:27AM 31.8592 -86.8289 230° Southwest 410 472 34,000  Level Atlanta Center
10:28AM 31.7858 -86.9267 229° Southwest 410 472 34,000  Level Atlanta Center
10:29AM 31.7147 -87.0244 229° Southwest 405 466 34,000  Level Atlanta Center
10:30AM 31.6389 -87.1367 232° Southwest 405 466 34,000  Level Atlanta Center
10:32AM 31.4736 -87.3533 228° Southwest 404 465 34,000  Level Houston Center
10:33AM 31.4003 -87.4531 229° Southwest 404 465 34,000  Level Houston Center
10:34AM 31.3272 -87.5519 229° Southwest 403 464 34,000  Level Houston Center
10:35AM 31.2544 -87.6519 230° Southwest 404 465 34,000  Level Houston Center
10:36AM 31.1675 -87.7681 229° Southwest 403 464 34,000  Level Houston Center
10:37AM 31.0944 -87.8664 229° Southwest 403 464 34,000 -540 Level Houston Center
10:38AM 31.0200 -87.9658 229° Southwest 408 470 32,900 -1,380 Descending Houston Center
10:39AM 30.9439 -88.0683 229° Southwest 417 480 31,200 -1,680 Descending Houston Center
10:41AM 30.8683 -88.1672 228° Southwest 412 474 29,500 -1,560 Descending Houston Center
10:42AM 30.7969 -88.2628 229° Southwest 394 453 28,000 -780 Descending Houston Center
10:43AM 30.7156 -88.3778 231° Southwest 386 444 28,000 -300 Level Houston Center
10:44AM 30.6725 -88.4775 243° Southwest 386 444 27,400 -780 Descending Houston Center
10:45AM 30.6239 -88.5872 243° Southwest 381 438 26,500 -1,080 Descending Houston Center
10:46AM 30.5767 -88.6936 243° Southwest 373 429 25,200 -1,620 Descending Houston Center
10:47AM 30.5194 -88.8225 243° Southwest 374 430 23,300 -1,740 Descending Houston Center
10:48AM 30.4728 -88.9278 243° Southwest 370 426 21,700 -1,500 Descending Houston Center
10:49AM 30.4322 -89.0208 243° Southwest 364 419 20,300 -1,440 Descending Houston Center
10:50AM 30.3900 -89.1206 244° Southwest 350 403 18,800 -1,440 Descending Houston Center
10:51AM 30.3461 -89.2422 247° West 343 395 17,400 -1,380 Descending Houston Center
10:51AM 30.3319 -89.2856 249° West 339 390 16,800 -1,380 Descending Houston Center
10:52AM 30.3094 -89.3419 245° Southwest 337 388 16,000 -1,500 Descending Houston Center
10:52AM 30.2900 -89.3961 247° West 325 374 15,200 -1,380 Descending Houston Center
10:53AM 30.2739 -89.4367 245° Southwest 326 375 14,600 -1,380 Descending Houston Center
10:53AM 30.2578 -89.4892 250° West 318 366 13,800 -1,260 Descending Houston Center
10:54AM 30.2511 -89.5350 260° West 318 366 13,300 -1,380 Descending Houston Center
10:54AM 30.2464 -89.5739 262° West 317 365 12,700 -1,500 Descending Houston Center
10:55AM 30.2350 -89.6350 258° West 314 361 11,800 -1,260 Descending Houston Center
10:56AM 30.2211 -89.7322 261° West 306 352 10,500 -1,320 Descending Houston Center
10:56AM 30.2139 -89.7847 261° West 280 322 9,900 -1,200 Descending Houston Center
10:57AM 30.2092 -89.8211 261° West 280 322 9,300 -1,440 Descending Houston Center
10:57AM 30.2022 -89.8767 262° West 267 307 8,300 -1,680 Descending Houston Center
10:58AM 30.1986 -89.9083 262° West 273 314 7,600 -1,860 Descending Houston Center
10:58AM 30.1944 -89.9564 264° West 268 308 6,600 -1,860 Descending Houston Center
10:59AM 30.1903 -89.9936 263° West 268 308 5,700 -1,920 Descending Houston Center
10:59AM 30.1783 -90.0389 253° West 266 306 4,700 -1,980 Descending Houston Center
11:00AM 30.1714 -90.0744 257° West 265 305 3,700 -1,920 Descending Houston Center
11:01AM 30.1561 -90.1264 251° West 266 306 2,600 -1,800 Descending Houston Center
11:01AM 30.1439 -90.1700 252° West 263 303 1,900 -780 Descending Houston Center
11:01AM 30.1392 -90.1847 250° West 227 261 2,000  Climbing Houston Center
11:02AM 30.1122 -90.2111 220° Southwest 206 237 1,900  Descending Houston Center
11:02AM 30.0981 -90.2153 194° South 164 189 2,000 360 Climbing Houston Center